sensor_id;sensor_type;location;lat;lon;timestamp;pressure;altitude;pressure_sealevel;temperature;humidity
76229;BME280;65021;53.174;18.160;2023-04-25T00:01:40;99850.77;;;10.98;82.05
76229;BME280;65021;53.174;18.160;2023-04-25T00:04:07;99851.23;;;10.96;82.13
76229;BME280;65021;53.174;18.160;2023-04-25T00:06:34;99852.63;;;10.95;81.99
76229;BME280;65021;53.174;18.160;2023-04-25T00:09:04;99853.90;;;10.92;81.97
76229;BME280;65021;53.174;18.160;2023-04-25T00:11:33;99852.51;;;10.92;82.19
76229;BME280;65021;53.174;18.160;2023-04-25T00:14:00;99846.66;;;10.90;82.18
76229;BME280;65021;53.174;18.160;2023-04-25T00:16:29;99847.27;;;10.89;82.19
76229;BME280;65021;53.174;18.160;2023-04-25T00:19:00;99846.09;;;10.89;82.19
76229;BME280;65021;53.174;18.160;2023-04-25T00:21:27;99843.88;;;10.88;82.25
76229;BME280;65021;53.174;18.160;2023-04-25T00:23:55;99844.26;;;10.86;82.25
76229;BME280;65021;53.174;18.160;2023-04-25T00:26:22;99845.98;;;10.85;82.38
76229;BME280;65021;53.174;18.160;2023-04-25T00:28:48;99847.69;;;10.84;82.27
76229;BME280;65021;53.174;18.160;2023-04-25T00:31:15;99843.39;;;10.81;82.14
76229;BME280;65021;53.174;18.160;2023-04-25T00:33:42;99845.65;;;10.79;82.25
76229;BME280;65021;53.174;18.160;2023-04-25T00:36:08;99843.58;;;10.76;82.34
76229;BME280;65021;53.174;18.160;2023-04-25T00:38:35;99842.84;;;10.74;82.33
76229;BME280;65021;53.174;18.160;2023-04-25T00:41:02;99844.61;;;10.71;82.31
76229;BME280;65021;53.174;18.160;2023-04-25T00:43:30;99845.65;;;10.68;82.19
76229;BME280;65021;53.174;18.160;2023-04-25T00:46:00;99849.92;;;10.66;82.22
76229;BME280;65021;53.174;18.160;2023-04-25T00:48:27;99845.46;;;10.63;82.86
76229;BME280;65021;53.174;18.160;2023-04-25T00:50:55;99849.05;;;10.60;83.18
76229;BME280;65021;53.174;18.160;2023-04-25T00:53:24;99851.41;;;10.56;82.75
76229;BME280;65021;53.174;18.160;2023-04-25T00:55:51;99853.95;;;10.54;82.35
76229;BME280;65021;53.174;18.160;2023-04-25T00:58:19;99854.84;;;10.50;82.68
76229;BME280;65021;53.174;18.160;2023-04-25T01:00:48;99854.91;;;10.45;82.74
76229;BME280;65021;53.174;18.160;2023-04-25T01:03:15;99856.77;;;10.40;82.67
76229;BME280;65021;53.174;18.160;2023-04-25T01:05:52;99860.27;;;10.36;82.40
76229;BME280;65021;53.174;18.160;2023-04-25T01:08:27;99858.14;;;10.31;82.26
76229;BME280;65021;53.174;18.160;2023-04-25T01:10:54;99860.77;;;10.25;82.22
76229;BME280;65021;53.174;18.160;2023-04-25T01:13:21;99858.48;;;10.20;82.16
76229;BME280;65021;53.174;18.160;2023-04-25T01:15:48;99859.57;;;10.16;82.16
76229;BME280;65021;53.174;18.160;2023-04-25T01:18:14;99858.33;;;10.12;82.12
76229;BME280;65021;53.174;18.160;2023-04-25T01:20:43;99860.48;;;10.09;81.94
76229;BME280;65021;53.174;18.160;2023-04-25T01:23:10;99859.41;;;10.06;81.96
76229;BME280;65021;53.174;18.160;2023-04-25T01:25:43;99858.66;;;10.03;81.88
76229;BME280;65021;53.174;18.160;2023-04-25T01:28:11;99855.62;;;9.99;81.87
76229;BME280;65021;53.174;18.160;2023-04-25T01:30:40;99855.16;;;9.96;81.77
76229;BME280;65021;53.174;18.160;2023-04-25T01:33:08;99860.12;;;9.91;82.07
76229;BME280;65021;53.174;18.160;2023-04-25T01:35:34;99859.55;;;9.89;81.83
76229;BME280;65021;53.174;18.160;2023-04-25T01:38:01;99859.45;;;9.85;81.68
76229;BME280;65021;53.174;18.160;2023-04-25T01:40:28;99862.29;;;9.81;81.91
76229;BME280;65021;53.174;18.160;2023-04-25T01:42:54;99861.58;;;9.74;82.08
76229;BME280;65021;53.174;18.160;2023-04-25T01:45:21;99865.02;;;9.70;81.90
76229;BME280;65021;53.174;18.160;2023-04-25T01:47:48;99868.05;;;9.67;81.58
76229;BME280;65021;53.174;18.160;2023-04-25T01:50:18;99865.48;;;9.61;81.82
76229;BME280;65021;53.174;18.160;2023-04-25T01:52:44;99867.16;;;9.57;81.76
76229;BME280;65021;53.174;18.160;2023-04-25T01:55:11;99868.39;;;9.52;81.70
76229;BME280;65021;53.174;18.160;2023-04-25T01:57:41;99871.20;;;9.47;81.86
76229;BME280;65021;53.174;18.160;2023-04-25T02:00:08;99870.89;;;9.42;81.81
76229;BME280;65021;53.174;18.160;2023-04-25T02:02:35;99877.02;;;9.40;81.86
76229;BME280;65021;53.174;18.160;2023-04-25T02:05:02;99881.84;;;9.35;81.83
76229;BME280;65021;53.174;18.160;2023-04-25T02:07:29;99883.34;;;9.30;81.64
76229;BME280;65021;53.174;18.160;2023-04-25T02:09:56;99881.91;;;9.23;81.64
76229;BME280;65021;53.174;18.160;2023-04-25T02:12:23;99883.71;;;9.16;81.74
76229;BME280;65021;53.174;18.160;2023-04-25T02:14:50;99881.91;;;9.09;81.57
76229;BME280;65021;53.174;18.160;2023-04-25T02:17:17;99885.71;;;9.03;81.69
76229;BME280;65021;53.174;18.160;2023-04-25T02:19:44;99889.25;;;8.97;81.71
76229;BME280;65021;53.174;18.160;2023-04-25T02:22:11;99893.11;;;8.92;81.99
76229;BME280;65021;53.174;18.160;2023-04-25T02:24:38;99896.21;;;8.88;81.67
76229;BME280;65021;53.174;18.160;2023-04-25T02:27:04;99895.06;;;8.85;81.78
76229;BME280;65021;53.174;18.160;2023-04-25T02:29:31;99895.22;;;8.81;81.89
76229;BME280;65021;53.174;18.160;2023-04-25T02:31:57;99891.23;;;8.76;81.63
76229;BME280;65021;53.174;18.160;2023-04-25T02:34:24;99890.60;;;8.71;81.69
76229;BME280;65021;53.174;18.160;2023-04-25T02:36:51;99895.73;;;8.66;81.81
76229;BME280;65021;53.174;18.160;2023-04-25T02:39:18;99894.82;;;8.60;81.80
76229;BME280;65021;53.174;18.160;2023-04-25T02:41:45;99899.62;;;8.55;81.81
76229;BME280;65021;53.174;18.160;2023-04-25T02:44:11;99906.42;;;8.50;81.85
76229;BME280;65021;53.174;18.160;2023-04-25T02:46:38;99910.04;;;8.47;82.09
76229;BME280;65021;53.174;18.160;2023-04-25T02:49:04;99909.94;;;8.45;82.02
76229;BME280;65021;53.174;18.160;2023-04-25T02:51:31;99907.18;;;8.42;82.02
76229;BME280;65021;53.174;18.160;2023-04-25T02:53:58;99909.70;;;8.41;82.19
76229;BME280;65021;53.174;18.160;2023-04-25T02:56:25;99909.06;;;8.39;82.19
76229;BME280;65021;53.174;18.160;2023-04-25T02:58:53;99906.83;;;8.38;82.25
76229;BME280;65021;53.174;18.160;2023-04-25T03:01:20;99909.26;;;8.37;82.15
76229;BME280;65021;53.174;18.160;2023-04-25T03:03:46;99913.45;;;8.36;82.37
76229;BME280;65021;53.174;18.160;2023-04-25T03:06:13;99911.39;;;8.36;82.19
76229;BME280;65021;53.174;18.160;2023-04-25T03:08:40;99912.45;;;8.36;82.41
76229;BME280;65021;53.174;18.160;2023-04-25T03:11:06;99912.94;;;8.36;82.39
76229;BME280;65021;53.174;18.160;2023-04-25T03:13:36;99912.89;;;8.36;82.36
76229;BME280;65021;53.174;18.160;2023-04-25T03:16:03;99912.63;;;8.33;82.35
76229;BME280;65021;53.174;18.160;2023-04-25T03:18:30;99915.63;;;8.31;82.25
76229;BME280;65021;53.174;18.160;2023-04-25T03:20:56;99916.17;;;8.27;82.05
76229;BME280;65021;53.174;18.160;2023-04-25T03:23:23;99915.74;;;8.23;82.17
76229;BME280;65021;53.174;18.160;2023-04-25T03:25:50;99920.90;;;8.20;81.96
76229;BME280;65021;53.174;18.160;2023-04-25T03:28:16;99923.39;;;8.17;81.90
76229;BME280;65021;53.174;18.160;2023-04-25T03:30:43;99920.89;;;8.13;81.93
76229;BME280;65021;53.174;18.160;2023-04-25T03:33:09;99921.00;;;8.09;82.12
76229;BME280;65021;53.174;18.160;2023-04-25T03:35:36;99922.20;;;8.06;81.74
76229;BME280;65021;53.174;18.160;2023-04-25T03:38:03;99922.75;;;8.02;81.90
76229;BME280;65021;53.174;18.160;2023-04-25T03:40:29;99924.41;;;7.99;81.94
76229;BME280;65021;53.174;18.160;2023-04-25T03:42:56;99927.71;;;7.98;81.86
76229;BME280;65021;53.174;18.160;2023-04-25T03:45:22;99928.83;;;7.95;81.97
76229;BME280;65021;53.174;18.160;2023-04-25T03:47:49;99930.55;;;7.92;81.85
76229;BME280;65021;53.174;18.160;2023-04-25T03:50:16;99930.08;;;7.90;81.84
76229;BME280;65021;53.174;18.160;2023-04-25T03:52:43;99930.73;;;7.89;81.88
76229;BME280;65021;53.174;18.160;2023-04-25T03:55:10;99934.69;;;7.89;81.70
76229;BME280;65021;53.174;18.160;2023-04-25T03:57:36;99940.45;;;7.89;81.80
76229;BME280;65021;53.174;18.160;2023-04-25T04:00:06;99946.73;;;7.87;81.82
76229;BME280;65021;53.174;18.160;2023-04-25T04:02:33;99949.43;;;7.87;81.66
76229;BME280;65021;53.174;18.160;2023-04-25T04:05:01;99956.14;;;7.87;81.76
76229;BME280;65021;53.174;18.160;2023-04-25T04:07:28;99958.27;;;7.89;81.75
76229;BME280;65021;53.174;18.160;2023-04-25T04:09:54;99964.67;;;7.92;81.60
76229;BME280;65021;53.174;18.160;2023-04-25T04:12:21;99965.21;;;7.93;81.75
76229;BME280;65021;53.174;18.160;2023-04-25T04:14:47;99964.15;;;7.93;81.75
76229;BME280;65021;53.174;18.160;2023-04-25T04:17:14;99968.05;;;7.91;81.74
76229;BME280;65021;53.174;18.160;2023-04-25T04:19:41;99972.16;;;7.92;81.74
76229;BME280;65021;53.174;18.160;2023-04-25T04:22:07;99974.64;;;7.95;81.66
76229;BME280;65021;53.174;18.160;2023-04-25T04:24:34;99978.34;;;7.97;81.50
76229;BME280;65021;53.174;18.160;2023-04-25T04:27:01;99982.01;;;7.99;81.25
76229;BME280;65021;53.174;18.160;2023-04-25T04:29:28;99983.42;;;8.02;81.35
76229;BME280;65021;53.174;18.160;2023-04-25T04:31:54;99988.09;;;8.07;81.30
76229;BME280;65021;53.174;18.160;2023-04-25T04:34:21;99990.59;;;8.07;81.45
76229;BME280;65021;53.174;18.160;2023-04-25T04:36:48;99992.29;;;8.09;81.52
76229;BME280;65021;53.174;18.160;2023-04-25T04:39:14;99990.25;;;8.12;81.23
76229;BME280;65021;53.174;18.160;2023-04-25T04:41:41;99992.41;;;8.15;81.07
76229;BME280;65021;53.174;18.160;2023-04-25T04:44:09;99990.27;;;8.18;81.11
76229;BME280;65021;53.174;18.160;2023-04-25T04:46:40;99988.41;;;8.23;80.89
76229;BME280;65021;53.174;18.160;2023-04-25T04:49:09;99990.57;;;8.28;80.95
76229;BME280;65021;53.174;18.160;2023-04-25T04:51:39;99987.95;;;8.33;80.92
76229;BME280;65021;53.174;18.160;2023-04-25T04:54:06;99987.23;;;8.37;80.66
76229;BME280;65021;53.174;18.160;2023-04-25T04:56:33;99986.47;;;8.41;80.51
76229;BME280;65021;53.174;18.160;2023-04-25T04:59:09;99992.34;;;8.44;80.47
76229;BME280;65021;53.174;18.160;2023-04-25T05:01:38;99992.05;;;8.44;80.39
76229;BME280;65021;53.174;18.160;2023-04-25T05:04:05;99990.10;;;8.40;80.17
76229;BME280;65021;53.174;18.160;2023-04-25T05:06:32;99995.61;;;8.31;79.96
76229;BME280;65021;53.174;18.160;2023-04-25T05:08:59;99996.27;;;8.26;80.21
76229;BME280;65021;53.174;18.160;2023-04-25T05:11:26;99998.71;;;8.21;80.47
76229;BME280;65021;53.174;18.160;2023-04-25T05:13:53;100004.45;;;8.17;80.35
76229;BME280;65021;53.174;18.160;2023-04-25T05:16:20;100001.19;;;8.14;80.35
76229;BME280;65021;53.174;18.160;2023-04-25T05:18:47;100000.38;;;8.12;80.33
76229;BME280;65021;53.174;18.160;2023-04-25T05:21:14;99996.70;;;8.08;80.35
76229;BME280;65021;53.174;18.160;2023-04-25T05:23:41;99996.38;;;8.08;80.30
76229;BME280;65021;53.174;18.160;2023-04-25T05:26:07;99999.21;;;8.10;80.16
76229;BME280;65021;53.174;18.160;2023-04-25T05:28:40;99998.02;;;8.13;80.19
76229;BME280;65021;53.174;18.160;2023-04-25T05:31:09;100003.14;;;8.21;80.33
76229;BME280;65021;53.174;18.160;2023-04-25T05:33:36;100002.94;;;8.27;80.03
76229;BME280;65021;53.174;18.160;2023-04-25T05:36:03;100010.18;;;8.33;79.98
76229;BME280;65021;53.174;18.160;2023-04-25T05:38:30;100007.85;;;8.44;79.85
76229;BME280;65021;53.174;18.160;2023-04-25T05:40:56;100009.90;;;8.61;79.78
76229;BME280;65021;53.174;18.160;2023-04-25T05:43:23;100008.62;;;8.78;79.65
76229;BME280;65021;53.174;18.160;2023-04-25T05:45:49;100008.77;;;8.91;79.39
76229;BME280;65021;53.174;18.160;2023-04-25T05:48:16;100011.11;;;9.02;78.90
76229;BME280;65021;53.174;18.160;2023-04-25T05:50:43;100013.63;;;9.11;78.58
76229;BME280;65021;53.174;18.160;2023-04-25T05:53:09;100012.09;;;9.28;78.56
76229;BME280;65021;53.174;18.160;2023-04-25T05:55:36;100010.02;;;9.42;78.36
76229;BME280;65021;53.174;18.160;2023-04-25T05:58:04;100009.83;;;9.53;78.25
76229;BME280;65021;53.174;18.160;2023-04-25T06:00:31;100015.36;;;9.70;77.09
76229;BME280;65021;53.174;18.160;2023-04-25T06:02:58;100009.41;;;9.83;76.52
76229;BME280;65021;53.174;18.160;2023-04-25T06:05:24;100011.27;;;9.96;76.96
76229;BME280;65021;53.174;18.160;2023-04-25T06:07:51;100008.67;;;10.11;76.83
76229;BME280;65021;53.174;18.160;2023-04-25T06:10:18;100011.36;;;10.32;76.70
76229;BME280;65021;53.174;18.160;2023-04-25T06:12:44;100012.70;;;10.57;76.66
76229;BME280;65021;53.174;18.160;2023-04-25T06:15:11;100012.46;;;10.89;76.33
76229;BME280;65021;53.174;18.160;2023-04-25T06:17:38;100006.48;;;11.37;75.47
76229;BME280;65021;53.174;18.160;2023-04-25T06:20:05;100007.71;;;11.68;73.58
76229;BME280;65021;53.174;18.160;2023-04-25T06:22:32;100008.08;;;11.63;70.51
76229;BME280;65021;53.174;18.160;2023-04-25T06:24:58;100005.59;;;11.45;70.17
76229;BME280;65021;53.174;18.160;2023-04-25T06:27:26;100005.77;;;11.48;72.77
76229;BME280;65021;53.174;18.160;2023-04-25T06:29:52;100009.59;;;11.57;71.55
76229;BME280;65021;53.174;18.160;2023-04-25T06:32:19;100005.02;;;11.51;71.79
76229;BME280;65021;53.174;18.160;2023-04-25T06:34:46;100009.61;;;11.50;71.40
76229;BME280;65021;53.174;18.160;2023-04-25T06:37:12;100012.64;;;11.50;71.43
76229;BME280;65021;53.174;18.160;2023-04-25T06:39:39;100014.35;;;11.39;69.37
76229;BME280;65021;53.174;18.160;2023-04-25T06:42:05;100015.59;;;11.31;68.80
76229;BME280;65021;53.174;18.160;2023-04-25T06:44:32;100013.31;;;11.41;71.24
76229;BME280;65021;53.174;18.160;2023-04-25T06:46:59;100009.65;;;11.78;71.51
76229;BME280;65021;53.174;18.160;2023-04-25T06:49:25;100004.80;;;12.08;70.41
76229;BME280;65021;53.174;18.160;2023-04-25T06:51:52;100003.14;;;12.06;68.38
76229;BME280;65021;53.174;18.160;2023-04-25T06:54:18;100003.89;;;11.99;70.61
76229;BME280;65021;53.174;18.160;2023-04-25T06:56:45;100002.77;;;12.14;69.41
76229;BME280;65021;53.174;18.160;2023-04-25T06:59:12;100004.79;;;12.28;68.60
76229;BME280;65021;53.174;18.160;2023-04-25T07:01:38;100003.52;;;12.29;68.15
76229;BME280;65021;53.174;18.160;2023-04-25T07:04:05;100006.42;;;12.33;68.68
76229;BME280;65021;53.174;18.160;2023-04-25T07:06:32;100006.14;;;12.33;67.15
76229;BME280;65021;53.174;18.160;2023-04-25T07:08:59;99998.90;;;12.38;66.82
76229;BME280;65021;53.174;18.160;2023-04-25T07:11:26;100000.46;;;12.32;66.81
76229;BME280;65021;53.174;18.160;2023-04-25T07:13:52;100002.02;;;12.31;67.32
76229;BME280;65021;53.174;18.160;2023-04-25T07:16:19;100003.52;;;12.35;68.25
76229;BME280;65021;53.174;18.160;2023-04-25T07:18:46;100004.02;;;12.33;65.89
76229;BME280;65021;53.174;18.160;2023-04-25T07:21:12;100009.20;;;12.28;65.68
76229;BME280;65021;53.174;18.160;2023-04-25T07:23:39;100008.75;;;12.26;65.65
76229;BME280;65021;53.174;18.160;2023-04-25T07:26:07;100008.23;;;12.46;65.01
76229;BME280;65021;53.174;18.160;2023-04-25T07:28:34;100007.68;;;12.68;64.28
76229;BME280;65021;53.174;18.160;2023-04-25T07:31:00;100010.26;;;12.78;64.76
76229;BME280;65021;53.174;18.160;2023-04-25T07:33:27;100013.81;;;13.05;64.93
76229;BME280;65021;53.174;18.160;2023-04-25T07:35:54;100014.35;;;13.28;65.38
76229;BME280;65021;53.174;18.160;2023-04-25T07:38:22;100010.94;;;13.53;65.80
76229;BME280;65021;53.174;18.160;2023-04-25T07:40:48;100016.73;;;13.58;64.89
76229;BME280;65021;53.174;18.160;2023-04-25T07:43:15;100016.10;;;13.63;65.18
76229;BME280;65021;53.174;18.160;2023-04-25T07:45:44;100009.87;;;13.70;62.02
76229;BME280;65021;53.174;18.160;2023-04-25T07:48:15;100015.79;;;13.56;61.06
76229;BME280;65021;53.174;18.160;2023-04-25T07:50:42;100007.21;;;13.77;64.18
76229;BME280;65021;53.174;18.160;2023-04-25T07:53:09;100011.27;;;13.85;64.55
76229;BME280;65021;53.174;18.160;2023-04-25T07:55:36;100013.67;;;13.85;62.62
76229;BME280;65021;53.174;18.160;2023-04-25T07:58:11;100019.98;;;13.52;60.08
76229;BME280;65021;53.174;18.160;2023-04-25T08:00:37;100020.24;;;13.41;60.23
76229;BME280;65021;53.174;18.160;2023-04-25T08:03:04;100026.41;;;13.28;59.31
76229;BME280;65021;53.174;18.160;2023-04-25T08:05:31;100024.02;;;13.48;61.60
76229;BME280;65021;53.174;18.160;2023-04-25T08:07:57;100021.52;;;13.60;60.41
76229;BME280;65021;53.174;18.160;2023-04-25T08:10:24;100029.41;;;13.55;57.71
76229;BME280;65021;53.174;18.160;2023-04-25T08:12:51;100023.08;;;13.59;58.75
76229;BME280;65021;53.174;18.160;2023-04-25T08:15:17;100015.37;;;13.63;60.42
76229;BME280;65021;53.174;18.160;2023-04-25T08:17:44;100017.66;;;13.64;61.19
76229;BME280;65021;53.174;18.160;2023-04-25T08:20:12;100027.60;;;13.44;60.99
76229;BME280;65021;53.174;18.160;2023-04-25T08:22:38;100032.56;;;13.20;60.54
76229;BME280;65021;53.174;18.160;2023-04-25T08:25:05;100035.23;;;12.91;59.49
76229;BME280;65021;53.174;18.160;2023-04-25T08:27:32;100035.56;;;12.79;61.33
76229;BME280;65021;53.174;18.160;2023-04-25T08:29:58;100037.47;;;12.79;61.37
76229;BME280;65021;53.174;18.160;2023-04-25T08:32:25;100044.61;;;12.84;61.61
76229;BME280;65021;53.174;18.160;2023-04-25T08:34:52;100041.76;;;12.96;62.17
76229;BME280;65021;53.174;18.160;2023-04-25T08:37:21;100044.45;;;13.01;60.76
76229;BME280;65021;53.174;18.160;2023-04-25T08:39:47;100041.22;;;13.13;61.99
76229;BME280;65021;53.174;18.160;2023-04-25T08:42:21;100048.84;;;13.28;60.26
76229;BME280;65021;53.174;18.160;2023-04-25T08:44:48;100049.41;;;13.28;58.80
76229;BME280;65021;53.174;18.160;2023-04-25T08:47:15;100044.79;;;13.17;58.25
76229;BME280;65021;53.174;18.160;2023-04-25T08:49:50;100044.02;;;13.12;59.28
76229;BME280;65021;53.174;18.160;2023-04-25T08:52:22;100045.16;;;13.33;60.79
76229;BME280;65021;53.174;18.160;2023-04-25T08:54:54;100043.89;;;13.53;60.15
76229;BME280;65021;53.174;18.160;2023-04-25T08:57:21;100048.34;;;13.54;58.67
76229;BME280;65021;53.174;18.160;2023-04-25T08:59:49;100048.33;;;13.58;58.43
76229;BME280;65021;53.174;18.160;2023-04-25T09:02:16;100044.02;;;13.80;58.30
76229;BME280;65021;53.174;18.160;2023-04-25T09:04:46;100041.63;;;13.92;55.37
76229;BME280;65021;53.174;18.160;2023-04-25T09:07:13;100037.70;;;14.08;57.68
76229;BME280;65021;53.174;18.160;2023-04-25T09:09:42;100044.65;;;14.03;55.83
76229;BME280;65021;53.174;18.160;2023-04-25T09:12:08;100044.98;;;14.06;55.67
76229;BME280;65021;53.174;18.160;2023-04-25T09:14:35;100047.75;;;14.20;57.84
76229;BME280;65021;53.174;18.160;2023-04-25T09:17:04;100050.35;;;14.25;58.36
76229;BME280;65021;53.174;18.160;2023-04-25T09:19:33;100055.73;;;14.23;58.67
76229;BME280;65021;53.174;18.160;2023-04-25T09:22:03;100063.69;;;14.10;58.67
76229;BME280;65021;53.174;18.160;2023-04-25T09:26:58;100069.47;;;13.69;57.31
76229;BME280;65021;53.174;18.160;2023-04-25T09:29:32;100071.70;;;13.51;57.70
76229;BME280;65021;53.174;18.160;2023-04-25T09:34:39;100072.70;;;13.44;59.30
76229;BME280;65021;53.174;18.160;2023-04-25T09:37:10;100077.27;;;13.51;58.87
76229;BME280;65021;53.174;18.160;2023-04-25T09:39:38;100076.92;;;13.59;58.85
76229;BME280;65021;53.174;18.160;2023-04-25T09:42:05;100071.05;;;13.67;58.16
76229;BME280;65021;53.174;18.160;2023-04-25T09:44:32;100077.90;;;13.73;57.62
76229;BME280;65021;53.174;18.160;2023-04-25T09:46:58;100080.83;;;13.81;57.83
76229;BME280;65021;53.174;18.160;2023-04-25T09:49:26;100078.05;;;13.96;58.12
76229;BME280;65021;53.174;18.160;2023-04-25T09:51:57;100072.89;;;14.12;57.56
76229;BME280;65021;53.174;18.160;2023-04-25T09:54:25;100078.54;;;14.24;57.11
76229;BME280;65021;53.174;18.160;2023-04-25T09:56:53;100081.18;;;14.35;56.85
76229;BME280;65021;53.174;18.160;2023-04-25T09:59:21;100086.95;;;14.46;56.13
76229;BME280;65021;53.174;18.160;2023-04-25T10:01:49;100086.33;;;14.49;56.62
76229;BME280;65021;53.174;18.160;2023-04-25T10:04:20;100083.42;;;14.47;55.63
76229;BME280;65021;53.174;18.160;2023-04-25T10:06:49;100082.64;;;14.36;56.93
76229;BME280;65021;53.174;18.160;2023-04-25T10:09:20;100086.62;;;14.29;56.80
76229;BME280;65021;53.174;18.160;2023-04-25T10:11:47;100082.45;;;14.25;55.34
76229;BME280;65021;53.174;18.160;2023-04-25T10:14:18;100082.13;;;14.21;55.74
76229;BME280;65021;53.174;18.160;2023-04-25T10:16:46;100082.25;;;14.37;56.32
76229;BME280;65021;53.174;18.160;2023-04-25T10:19:13;100085.10;;;14.47;55.38
76229;BME280;65021;53.174;18.160;2023-04-25T10:21:50;100081.35;;;14.56;55.78
76229;BME280;65021;53.174;18.160;2023-04-25T10:24:17;100090.73;;;14.36;52.19
76229;BME280;65021;53.174;18.160;2023-04-25T10:26:46;100094.46;;;14.02;53.83
76229;BME280;65021;53.174;18.160;2023-04-25T10:29:21;100100.12;;;13.94;55.12
76229;BME280;65021;53.174;18.160;2023-04-25T10:31:48;100098.61;;;13.78;54.10
76229;BME280;65021;53.174;18.160;2023-04-25T10:34:16;100100.80;;;13.73;55.26
76229;BME280;65021;53.174;18.160;2023-04-25T10:36:49;100104.18;;;13.84;55.31
76229;BME280;65021;53.174;18.160;2023-04-25T10:39:24;100099.89;;;13.80;53.53
76229;BME280;65021;53.174;18.160;2023-04-25T10:41:56;100105.45;;;13.68;53.05
76229;BME280;65021;53.174;18.160;2023-04-25T10:44:26;100104.64;;;13.56;53.13
76229;BME280;65021;53.174;18.160;2023-04-25T10:46:58;100105.58;;;13.56;54.13
76229;BME280;65021;53.174;18.160;2023-04-25T10:49:34;100105.64;;;13.55;53.67
76229;BME280;65021;53.174;18.160;2023-04-25T10:54:52;100108.67;;;13.41;54.45
76229;BME280;65021;53.174;18.160;2023-04-25T10:57:29;100110.46;;;13.41;55.38
76229;BME280;65021;53.174;18.160;2023-04-25T11:00:00;100106.34;;;13.35;54.44
76229;BME280;65021;53.174;18.160;2023-04-25T11:02:28;100106.22;;;13.45;55.12
76229;BME280;65021;53.174;18.160;2023-04-25T11:04:55;100107.59;;;13.60;55.04
76229;BME280;65021;53.174;18.160;2023-04-25T11:10:06;100107.14;;;14.03;54.83
76229;BME280;65021;53.174;18.160;2023-04-25T11:12:33;100098.23;;;14.17;53.96
76229;BME280;65021;53.174;18.160;2023-04-25T11:15:04;100094.91;;;14.13;51.49
76229;BME280;65021;53.174;18.160;2023-04-25T11:17:31;100097.37;;;14.12;52.30
76229;BME280;65021;53.174;18.160;2023-04-25T11:19:58;100103.76;;;14.07;51.69
76229;BME280;65021;53.174;18.160;2023-04-25T11:22:26;100102.19;;;14.10;51.51
76229;BME280;65021;53.174;18.160;2023-04-25T11:24:53;100103.36;;;14.28;52.82
76229;BME280;65021;53.174;18.160;2023-04-25T11:27:20;100106.24;;;14.45;53.29
76229;BME280;65021;53.174;18.160;2023-04-25T11:29:47;100110.04;;;14.58;53.43
76229;BME280;65021;53.174;18.160;2023-04-25T11:32:17;100105.75;;;14.45;51.26
76229;BME280;65021;53.174;18.160;2023-04-25T11:34:44;100114.68;;;14.17;51.13
76229;BME280;65021;53.174;18.160;2023-04-25T11:37:13;100115.53;;;14.13;52.22
76229;BME280;65021;53.174;18.160;2023-04-25T11:39:44;100112.05;;;14.18;51.71
76229;BME280;65021;53.174;18.160;2023-04-25T11:42:12;100113.39;;;14.18;51.21
76229;BME280;65021;53.174;18.160;2023-04-25T11:44:39;100108.11;;;14.28;51.55
76229;BME280;65021;53.174;18.160;2023-04-25T11:47:06;100110.34;;;14.32;50.89
76229;BME280;65021;53.174;18.160;2023-04-25T11:49:33;100110.64;;;14.36;51.34
76229;BME280;65021;53.174;18.160;2023-04-25T11:52:01;100110.34;;;14.45;51.52
76229;BME280;65021;53.174;18.160;2023-04-25T11:54:28;100111.69;;;14.71;52.69
76229;BME280;65021;53.174;18.160;2023-04-25T11:56:54;100109.05;;;14.97;53.07
76229;BME280;65021;53.174;18.160;2023-04-25T11:59:24;100109.52;;;15.23;53.12
76229;BME280;65021;53.174;18.160;2023-04-25T12:01:52;100114.61;;;15.36;53.00
76229;BME280;65021;53.174;18.160;2023-04-25T12:04:23;100122.51;;;15.16;51.18
76229;BME280;65021;53.174;18.160;2023-04-25T12:06:54;100118.54;;;14.77;52.14
76229;BME280;65021;53.174;18.160;2023-04-25T12:09:28;100122.09;;;14.39;51.58
76229;BME280;65021;53.174;18.160;2023-04-25T12:11:57;100124.05;;;13.88;51.78
76229;BME280;65021;53.174;18.160;2023-04-25T12:14:26;100131.89;;;13.57;53.04
76229;BME280;65021;53.174;18.160;2023-04-25T12:16:58;100132.45;;;13.36;53.29
76229;BME280;65021;53.174;18.160;2023-04-25T12:19:25;100135.31;;;13.17;53.78
76229;BME280;65021;53.174;18.160;2023-04-25T12:21:55;100137.31;;;13.08;54.13
76229;BME280;65021;53.174;18.160;2023-04-25T12:24:23;100136.37;;;13.09;54.59
76229;BME280;65021;53.174;18.160;2023-04-25T12:27:05;100139.34;;;13.18;54.76
76229;BME280;65021;53.174;18.160;2023-04-25T12:29:33;100136.48;;;13.34;54.49
76229;BME280;65021;53.174;18.160;2023-04-25T12:32:00;100133.91;;;13.43;54.15
76229;BME280;65021;53.174;18.160;2023-04-25T12:34:32;100133.27;;;13.61;54.34
76229;BME280;65021;53.174;18.160;2023-04-25T12:36:58;100134.01;;;13.85;53.82
76229;BME280;65021;53.174;18.160;2023-04-25T12:39:25;100132.23;;;14.01;51.99
76229;BME280;65021;53.174;18.160;2023-04-25T12:41:52;100131.11;;;14.18;52.98
76229;BME280;65021;53.174;18.160;2023-04-25T12:44:21;100123.66;;;14.51;53.62
76229;BME280;65021;53.174;18.160;2023-04-25T12:46:48;100123.09;;;14.81;51.49
76229;BME280;65021;53.174;18.160;2023-04-25T12:49:14;100121.91;;;14.99;51.09
76229;BME280;65021;53.174;18.160;2023-04-25T12:51:41;100119.71;;;15.23;52.21
76229;BME280;65021;53.174;18.160;2023-04-25T12:54:08;100122.02;;;15.40;52.20
76229;BME280;65021;53.174;18.160;2023-04-25T12:56:35;100118.70;;;15.44;50.75
76229;BME280;65021;53.174;18.160;2023-04-25T12:59:02;100113.50;;;15.34;51.64
76229;BME280;65021;53.174;18.160;2023-04-25T13:01:29;100109.61;;;15.31;51.13